Terminal Aerodrome Forecast
Issued by NWS

Home | Current Version | Previous Version | Text Only | Print | Product List | Glossary On
Versions: 1 2 3 4 5 6 7 8 9 10 11 12 13 14 15 16 17
000
FTPQ31 PGUM 260800 RRA
TAFPQ
TAF
PTPN 260808Z 2608/2706 15007KT P6SM VCSH SCT018 BKN300=

USA.gov is the U.S. government's official web portal to all federal, state and local government web resources and services.